Accedi per prenotare

Caricamento...

Situazione Metar e Taf aeroporto Pisa - Effemeridi Aeroporto Lucca

[Source: ADDS]
METAR
LIRP 191315Z 24011KT CAVOK 28/13 Q1014 NOSIG =
LIRP 191100Z 1912/2012 27012KT CAVOK BECMG 1918/1920 11004KT BECMG 2010/2012 27012KT
TAF
LIRP 191100Z 1912/2012 27012KT CAVOK BECMG 1918/1920 11004KT BECMG 2010/2012 27012KT =
SR / SS: 03:40 / 19:02 UTC (Effemeridi LIQL 2019-06-19)